Time;durP1;ratioP1;P1;durP2;ratioP2;P2;SDS_P1;SDS_P2;PMS_P1;PMS_P2;Temp;Humidity;BMP_temperature;BMP_pressure;BME280_temperature;BME280_humidity;BME280_pressure;Samples;Min_cycle;Max_cycle;Signal;HPM_P1;HPM_P2
2023/07/06 00:02:37;;;;;;;7.13;2.50;;;;;;;13.46;99.62;100831.19;6004523;28;20030;-66
2023/07/06 00:05:35;;;;;;;5.07;2.70;;;;;;;13.34;100.00;100820.97;6004029;28;20070;-67
2023/07/06 00:08:31;;;;;;;4.47;2.22;;;;;;;13.26;100.00;100824.47;6004554;28;20101;-66
2023/07/06 00:11:33;;;;;;;6.82;2.67;;;;;;;13.20;100.00;100825.09;6004187;28;20018;-66
2023/07/06 00:14:28;;;;;;;5.35;2.85;;;;;;;13.13;100.00;100840.88;6004446;28;20034;-67
2023/07/06 00:17:23;;;;;;;5.65;2.70;;;;;;;12.98;100.00;100810.47;6006447;28;20042;-66
2023/07/06 00:20:20;;;;;;;3.57;2.07;;;;;;;13.00;100.00;100835.13;6004288;28;20073;-66
2023/07/06 00:23:16;;;;;;;5.40;2.58;;;;;;;12.95;100.00;100837.41;6003520;28;20038;-67
2023/07/06 00:26:11;;;;;;;6.20;1.90;;;;;;;12.91;100.00;100841.38;6014250;28;20053;-67
2023/07/06 00:29:06;;;;;;;6.00;2.17;;;;;;;12.86;100.00;100841.00;6004307;28;20106;-66
2023/07/06 00:32:15;;;;;;;4.83;2.13;;;;;;;12.76;100.00;100844.78;6003651;28;20406;-66
2023/07/06 00:35:11;;;;;;;4.60;2.00;;;;;;;12.79;100.00;100865.75;6003148;28;20826;-66
2023/07/06 00:38:12;;;;;;;3.65;2.30;;;;;;;12.68;100.00;100850.88;6003964;28;20035;-66
2023/07/06 00:41:08;;;;;;;3.58;2.08;;;;;;;12.64;100.00;100862.00;6003956;28;20066;-66
2023/07/06 00:44:04;;;;;;;5.25;2.13;;;;;;;12.62;100.00;100854.16;6002872;28;20359;-66
2023/07/06 00:46:59;;;;;;;4.70;2.10;;;;;;;12.51;100.00;100852.59;6003749;28;20019;-66
2023/07/06 00:49:57;;;;;;;3.80;1.75;;;;;;;12.48;100.00;100846.75;6003671;28;20071;-66
2023/07/06 00:52:58;;;;;;;3.65;1.80;;;;;;;12.43;100.00;100852.53;6001973;28;20045;-66
2023/07/06 00:55:58;;;;;;;6.53;2.00;;;;;;;12.54;100.00;100862.09;6002258;28;20458;-67
2023/07/06 00:58:54;;;;;;;5.43;1.95;;;;;;;12.54;100.00;100860.28;5990090;28;20414;-66
2023/07/06 01:01:50;;;;;;;3.70;1.90;;;;;;;12.69;100.00;100875.69;6003481;28;20031;-66
2023/07/06 01:04:45;;;;;;;5.23;2.43;;;;;;;12.68;100.00;100866.84;6001526;28;20037;-66
2023/07/06 01:07:44;;;;;;;5.93;2.63;;;;;;;12.70;100.00;100864.88;6004664;28;20042;-66
2023/07/06 01:10:40;;;;;;;3.75;1.65;;;;;;;12.75;100.00;100867.03;6010731;28;20035;-66
2023/07/06 01:13:36;;;;;;;6.07;1.92;;;;;;;12.77;100.00;100851.78;6001273;28;20039;-66
2023/07/06 01:16:51;;;;;;;3.78;2.05;;;;;;;12.88;100.00;100867.50;6003076;28;20180;-66
2023/07/06 01:19:59;;;;;;;4.88;1.98;;;;;;;12.76;100.00;100844.78;6002898;28;20022;-67
2023/07/06 01:23:09;;;;;;;4.38;2.10;;;;;;;12.87;100.00;100852.50;6003923;28;20026;-66
2023/07/06 01:26:42;;;;;;;5.30;1.80;;;;;;;12.96;100.00;100873.69;6000927;28;20379;-67
2023/07/06 01:30:05;;;;;;;3.67;2.03;;;;;;;12.99;100.00;100865.38;6002973;28;20082;-67
2023/07/06 01:33:05;;;;;;;5.07;2.20;;;;;;;12.88;100.00;100848.84;6002798;28;20454;-66
2023/07/06 01:36:03;;;;;;;5.55;2.05;;;;;;;13.04;100.00;100876.38;5993434;28;20073;-66
2023/07/06 01:39:22;;;;;;;3.65;1.90;;;;;;;13.08;100.00;100874.28;6002442;28;20030;-66
2023/07/06 01:42:26;;;;;;;5.30;1.77;;;;;;;12.99;100.00;100865.38;5997422;28;20045;-64
2023/07/06 01:45:23;;;;;;;5.13;2.20;;;;;;;13.00;100.00;100869.72;5990062;28;20477;-65
2023/07/06 01:48:20;;;;;;;5.82;2.72;;;;;;;13.03;100.00;100882.72;6003105;28;20473;-68
2023/07/06 01:51:20;;;;;;;5.78;2.55;;;;;;;12.88;100.00;100873.63;6001109;28;20034;-67
2023/07/06 01:54:20;;;;;;;6.20;2.20;;;;;;;12.91;100.00;100868.00;6000352;28;20029;-65
2023/07/06 01:57:35;;;;;;;5.82;2.17;;;;;;;12.88;100.00;100873.63;6002329;28;20090;-65
2023/07/06 02:00:31;;;;;;;8.05;2.63;;;;;;;12.93;100.00;100892.66;5991914;28;20030;-66
2023/07/06 02:03:27;;;;;;;4.03;2.15;;;;;;;12.89;100.00;100877.97;5999870;28;20486;-65
2023/07/06 02:06:23;;;;;;;4.90;2.35;;;;;;;12.87;100.00;100887.94;6019064;28;20031;-65
2023/07/06 02:09:18;;;;;;;4.47;2.40;;;;;;;12.88;100.00;100888.78;6019485;28;20037;-66
2023/07/06 02:12:14;;;;;;;4.38;2.40;;;;;;;12.83;100.00;100878.59;6006443;28;20018;-66
2023/07/06 02:15:10;;;;;;;4.72;2.42;;;;;;;12.81;100.00;100882.41;6006465;28;20038;-65
2023/07/06 02:18:05;;;;;;;6.95;2.53;;;;;;;12.85;100.00;100903.25;6006804;28;20081;-65
2023/07/06 02:21:01;;;;;;;5.32;2.78;;;;;;;12.74;100.00;100881.38;6006942;28;20208;-65
2023/07/06 02:23:56;;;;;;;4.28;2.90;;;;;;;12.68;100.00;100893.47;6006131;28;20034;-65
2023/07/06 02:26:54;;;;;;;6.00;2.63;;;;;;;12.69;100.00;100897.78;6005341;28;20041;-65
2023/07/06 02:29:50;;;;;;;6.28;2.92;;;;;;;12.59;100.00;100890.88;6006401;28;20502;-65
2023/07/06 02:32:46;;;;;;;4.73;2.43;;;;;;;12.59;100.00;100904.19;6006461;28;20045;-64
2023/07/06 02:35:41;;;;;;;4.78;2.50;;;;;;;12.55;100.00;100909.00;6005470;28;20246;-64
2023/07/06 02:38:37;;;;;;;5.70;3.20;;;;;;;12.54;100.00;100907.31;6006023;28;20027;-64
2023/07/06 02:41:33;;;;;;;4.73;3.00;;;;;;;12.61;100.00;100908.34;6006144;28;20069;-65
2023/07/06 02:44:28;;;;;;;5.20;2.70;;;;;;;12.72;100.00;100910.78;6005791;28;20595;-65
2023/07/06 02:47:23;;;;;;;6.43;2.33;;;;;;;12.81;100.00;100909.84;6006080;28;20031;-65
2023/07/06 02:50:20;;;;;;;5.47;2.83;;;;;;;12.74;100.00;100898.16;6006048;28;20018;-64
2023/07/06 02:53:15;;;;;;;7.05;3.38;;;;;;;12.83;100.00;100894.56;6005742;28;20824;-65
2023/07/06 02:56:10;;;;;;;5.18;2.90;;;;;;;12.81;100.00;100877.91;6005499;28;20047;-66
2023/07/06 02:59:06;;;;;;;9.63;3.33;;;;;;;12.87;100.00;100895.94;6005935;28;20031;-64
2023/07/06 03:02:01;;;;;;;5.57;2.70;;;;;;;12.85;100.00;100892.59;6005613;28;20509;-67
2023/07/06 03:04:56;;;;;;;6.77;2.80;;;;;;;12.94;100.00;100899.63;6005358;28;20027;-66
2023/07/06 03:07:52;;;;;;;6.73;3.17;;;;;;;12.85;100.00;100903.25;6005540;28;20282;-66
2023/07/06 03:10:48;;;;;;;7.15;3.20;;;;;;;12.85;100.00;100902.41;6005637;28;20023;-67
2023/07/06 03:13:43;;;;;;;8.00;3.15;;;;;;;12.87;100.00;100893.25;6004793;28;20050;-65
2023/07/06 03:16:41;;;;;;;8.93;3.33;;;;;;;12.80;100.00;100897.53;6005214;28;20491;-65
2023/07/06 03:19:38;;;;;;;9.00;3.47;;;;;;;12.75;100.00;100899.81;6004595;28;20019;-64
2023/07/06 03:22:34;;;;;;;7.28;2.85;;;;;;;12.73;100.00;100900.97;6005097;28;20034;-64
2023/07/06 03:25:30;;;;;;;4.57;2.60;;;;;;;12.85;100.00;100911.22;6004005;28;20498;-65
2023/07/06 03:28:29;;;;;;;8.93;3.63;;;;;;;12.95;100.00;100909.28;6005288;28;20031;-65
2023/07/06 03:31:24;;;;;;;5.47;3.33;;;;;;;12.96;100.00;100916.25;6005072;28;20324;-65
2023/07/06 03:34:20;;;;;;;9.43;3.63;;;;;;;12.80;100.00;100910.84;6004719;28;20027;-65
2023/07/06 03:37:15;;;;;;;5.72;3.05;;;;;;;12.70;100.00;100906.59;6004540;28;20018;-64
2023/07/06 03:40:11;;;;;;;6.80;3.10;;;;;;;12.64;100.00;100899.25;6005196;28;20038;-65
2023/07/06 03:43:06;;;;;;;5.38;3.08;;;;;;;12.70;100.00;100923.41;6005012;28;20419;-65
2023/07/06 03:46:03;;;;;;;7.87;3.10;;;;;;;12.64;100.00;100921.34;6004193;28;20700;-65
2023/07/06 03:48:58;;;;;;;6.80;3.70;;;;;;;12.73;100.00;100927.56;6004771;28;20305;-65
2023/07/06 03:51:54;;;;;;;5.97;3.50;;;;;;;12.72;100.00;100936.56;6004541;28;20030;-65
2023/07/06 03:54:49;;;;;;;5.47;3.13;;;;;;;12.76;100.00;100940.59;6004317;28;20030;-65
2023/07/06 03:57:45;;;;;;;6.20;3.50;;;;;;;12.70;100.00;100936.72;6004253;28;20038;-65
2023/07/06 04:00:41;;;;;;;5.90;3.55;;;;;;;12.66;100.00;100932.69;6003956;28;20480;-65
2023/07/06 04:03:36;;;;;;;8.88;3.75;;;;;;;12.72;100.00;100934.72;6004137;28;20027;-65
2023/07/06 04:06:32;;;;;;;6.63;3.70;;;;;;;12.88;100.00;100940.16;6004438;28;20037;-65
2023/07/06 04:09:28;;;;;;;6.87;3.57;;;;;;;12.96;100.00;100934.91;6004489;28;20026;-65
2023/07/06 04:12:23;;;;;;;8.68;3.70;;;;;;;12.89;100.00;100947.16;6004428;28;20031;-65
2023/07/06 04:15:19;;;;;;;6.20;3.40;;;;;;;12.94;100.00;100952.88;6003466;28;20089;-66
2023/07/06 04:18:17;;;;;;;7.07;3.90;;;;;;;13.24;100.00;100956.09;6004022;28;20439;-66
2023/07/06 04:21:14;;;;;;;6.32;3.53;;;;;;;13.08;100.00;100964.81;6004028;28;20050;-66
2023/07/06 04:24:10;;;;;;;6.63;3.45;;;;;;;13.23;100.00;100959.75;6003662;28;20113;-66
2023/07/06 04:27:05;;;;;;;7.33;3.57;;;;;;;13.38;100.00;100966.16;6003623;28;20037;-66
2023/07/06 04:30:01;;;;;;;11.30;4.70;;;;;;;13.55;100.00;100951.94;6011733;28;20099;-66
2023/07/06 04:32:56;;;;;;;8.13;3.47;;;;;;;14.08;100.00;100976.47;6003996;28;20486;-66
2023/07/06 04:35:52;;;;;;;8.23;3.70;;;;;;;14.31;100.00;100955.34;6002702;28;20034;-65
2023/07/06 04:38:47;;;;;;;6.97;3.85;;;;;;;14.67;99.65;100961.28;6002535;28;20618;-66
2023/07/06 04:41:43;;;;;;;9.25;4.60;;;;;;;15.39;96.02;100958.53;6004273;28;20030;-66
2023/07/06 04:44:38;;;;;;;9.40;4.40;;;;;;;15.30;93.10;100959.53;6004923;28;20118;-66
2023/07/06 04:47:34;;;;;;;10.17;4.67;;;;;;;15.73;91.71;100962.78;6003697;28;20383;-65
2023/07/06 04:50:31;;;;;;;8.30;4.33;;;;;;;16.04;89.78;100971.66;6002948;28;20023;-66
2023/07/06 04:53:26;;;;;;;7.35;4.18;;;;;;;16.22;89.36;100971.41;6007725;28;20034;-66
2023/07/06 04:56:22;;;;;;;10.57;5.22;;;;;;;15.83;88.87;100979.47;6003359;28;20038;-66
2023/07/06 04:59:17;;;;;;;8.20;4.90;;;;;;;15.98;91.03;100969.72;6002381;28;20034;-66
2023/07/06 05:02:13;;;;;;;8.60;4.23;;;;;;;16.17;87.78;100985.31;6001829;28;20034;-66
2023/07/06 05:05:11;;;;;;;7.82;4.53;;;;;;;16.21;88.07;100970.56;6004760;28;20050;-66
2023/07/06 05:08:08;;;;;;;10.50;4.45;;;;;;;16.49;86.33;100974.44;6003367;28;20029;-66
2023/07/06 05:11:04;;;;;;;8.38;4.55;;;;;;;16.34;87.07;100968.16;6002651;28;20344;-67
2023/07/06 05:14:00;;;;;;;9.65;4.80;;;;;;;16.51;86.41;100980.44;6002237;28;20038;-66
2023/07/06 05:16:55;;;;;;;9.00;4.60;;;;;;;16.11;87.38;100975.31;6003006;28;20042;-66
2023/07/06 05:19:50;;;;;;;11.43;5.07;;;;;;;16.12;87.24;100968.94;6004390;28;20032;-66
2023/07/06 05:22:48;;;;;;;11.23;4.67;;;;;;;16.22;88.24;100971.41;6003022;28;20026;-66
2023/07/06 05:25:43;;;;;;;8.40;4.43;;;;;;;16.18;86.24;100973.59;6002146;28;20035;-66
2023/07/06 05:28:39;;;;;;;8.20;4.20;;;;;;;16.38;87.15;100990.06;6006202;28;20053;-66
2023/07/06 05:31:36;;;;;;;7.10;4.40;;;;;;;16.28;84.26;100971.53;6004428;28;20050;-66
2023/07/06 05:34:31;;;;;;;7.57;3.80;;;;;;;16.05;85.82;100947.44;6007442;28;20034;-66
2023/07/06 05:37:26;;;;;;;7.03;4.03;;;;;;;16.50;83.99;100961.84;6002887;28;20347;-66
2023/07/06 05:40:21;;;;;;;7.10;3.67;;;;;;;16.45;83.72;100967.75;6002419;28;20521;-66
2023/07/06 05:43:19;;;;;;;6.63;3.90;;;;;;;16.73;81.98;100980.63;6001860;28;20113;-66
2023/07/06 05:46:14;;;;;;;7.60;3.90;;;;;;;16.33;83.39;100995.94;6002439;28;20030;-66
2023/07/06 05:49:09;;;;;;;9.50;4.60;;;;;;;16.55;81.87;100995.13;6015274;28;20429;-66
2023/07/06 05:52:05;;;;;;;6.95;3.60;;;;;;;16.48;81.04;100977.25;6002689;28;20031;-66
2023/07/06 05:55:01;;;;;;;7.47;3.53;;;;;;;16.81;81.59;100984.09;6001817;28;20106;-66
2023/07/06 05:57:56;;;;;;;6.60;3.60;;;;;;;16.95;79.81;100985.13;6002806;28;20060;-67
2023/07/06 06:00:52;;;;;;;8.30;3.60;;;;;;;17.24;80.14;100999.44;6002337;28;20026;-66
2023/07/06 06:03:47;;;;;;;6.25;3.53;;;;;;;17.40;76.85;100984.19;6003260;28;20026;-66
2023/07/06 06:06:54;;;;;;;6.47;3.33;;;;;;;17.05;78.55;100997.28;6002436;28;20026;-66
2023/07/06 06:09:49;;;;;;;;;;;;;;;17.21;79.05;101012.38;6002778;28;20387;-65
2023/07/06 06:12:44;;;;;;;9.32;3.85;;;;;;;16.94;79.91;101004.91;6002322;28;19920;-66
2023/07/06 06:15:40;;;;;;;7.17;3.17;;;;;;;17.13;79.55;100999.88;6001698;28;20042;-66
2023/07/06 06:18:39;;;;;;;6.75;3.30;;;;;;;16.99;78.73;101007.88;6002623;28;20046;-66
2023/07/06 06:21:35;;;;;;;7.50;3.55;;;;;;;17.11;79.79;101027.88;6002280;28;20101;-66
2023/07/06 06:24:30;;;;;;;5.20;3.42;;;;;;;17.46;77.95;101027.22;6001564;28;20494;-66
2023/07/06 06:27:26;;;;;;;6.73;3.00;;;;;;;17.40;77.15;101025.25;6002149;28;20037;-66
2023/07/06 06:30:21;;;;;;;5.68;3.30;;;;;;;17.68;76.44;101033.56;6004701;28;20398;-66
2023/07/06 06:33:17;;;;;;;6.65;3.10;;;;;;;17.51;78.40;101035.53;6007619;28;20088;-66
2023/07/06 06:36:13;;;;;;;5.47;2.72;;;;;;;17.94;75.92;101041.16;6001803;28;20039;-66
2023/07/06 06:39:09;;;;;;;5.35;2.80;;;;;;;18.06;73.95;101039.66;6002302;28;20496;-67
2023/07/06 06:42:05;;;;;;;6.70;3.50;;;;;;;17.78;75.44;101044.84;6002215;28;20030;-66
2023/07/06 06:45:00;;;;;;;7.35;3.15;;;;;;;18.05;75.81;101051.41;6003674;28;20381;-66
2023/07/06 06:47:56;;;;;;;5.80;2.57;;;;;;;17.97;75.19;101009.41;6007188;28;20485;-66
2023/07/06 06:50:51;;;;;;;9.50;3.03;;;;;;;18.00;74.53;101054.66;5997925;28;20038;-66
2023/07/06 06:53:46;;;;;;;8.50;2.73;;;;;;;17.90;74.36;101055.94;6001570;28;20039;-66
2023/07/06 06:56:41;;;;;;;5.47;2.40;;;;;;;17.62;76.29;101045.00;5992771;28;20031;-66
2023/07/06 06:59:37;;;;;;;3.83;2.40;;;;;;;18.00;75.44;101049.28;6005857;28;20293;-67
2023/07/06 07:02:32;;;;;;;5.13;1.87;;;;;;;18.39;72.31;101062.41;6005927;28;20031;-65
2023/07/06 07:05:28;;;;;;;6.57;2.88;;;;;;;18.15;73.06;101070.75;6005151;28;20066;-65
2023/07/06 07:08:24;;;;;;;5.93;2.45;;;;;;;18.27;73.94;101070.09;6005945;28;20030;-64
2023/07/06 07:11:19;;;;;;;8.45;2.42;;;;;;;18.33;71.81;101063.13;6005782;28;20034;-65
2023/07/06 07:14:15;;;;;;;9.05;2.28;;;;;;;18.35;71.01;101050.34;6004909;28;20041;-66
2023/07/06 07:17:13;;;;;;;5.13;2.22;;;;;;;18.30;71.69;101063.50;6008051;28;20030;-66
2023/07/06 07:20:09;;;;;;;4.57;2.08;;;;;;;18.32;71.36;101058.78;6008442;28;20375;-65
2023/07/06 07:23:05;;;;;;;7.72;2.33;;;;;;;18.74;70.42;101061.59;6005687;28;20046;-65
2023/07/06 07:26:02;;;;;;;4.95;2.15;;;;;;;18.79;67.90;101066.38;6005077;28;20115;-65
2023/07/06 07:28:57;;;;;;;4.57;1.83;;;;;;;18.76;69.14;101077.50;6005194;28;20037;-65
2023/07/06 07:31:53;;;;;;;5.13;2.30;;;;;;;18.76;66.88;101075.66;6005249;28;20106;-66
2023/07/06 07:34:51;;;;;;;5.82;2.05;;;;;;;18.66;67.36;101050.97;6004458;28;20097;-65
2023/07/06 07:37:50;;;;;;;4.25;1.60;;;;;;;19.39;65.33;101052.50;6004205;28;20474;-65
2023/07/06 07:40:59;;;;;;;5.32;1.63;;;;;;;19.27;61.26;101070.19;6005087;28;20074;-65
2023/07/06 07:43:55;;;;;;;3.75;1.92;;;;;;;18.93;63.02;101066.34;6004348;28;20074;-66
2023/07/06 07:46:50;;;;;;;3.27;1.87;;;;;;;18.64;66.83;101050.31;6004979;28;20462;-65
2023/07/06 07:49:46;;;;;;;6.00;1.90;;;;;;;19.03;69.45;101061.47;6004681;28;20027;-66
2023/07/06 07:52:41;;;;;;;5.65;1.77;;;;;;;19.32;67.70;101075.81;6004976;28;20266;-65
2023/07/06 07:55:37;;;;;;;4.43;1.83;;;;;;;19.10;64.96;101074.97;6012514;28;20034;-65
2023/07/06 07:58:35;;;;;;;4.03;1.60;;;;;;;19.22;63.88;101067.22;6004878;28;20033;-66
2023/07/06 08:01:30;;;;;;;6.28;1.90;;;;;;;19.55;64.07;101077.25;6004518;28;20030;-65
2023/07/06 08:04:25;;;;;;;5.30;2.37;;;;;;;19.65;62.02;101076.91;6003884;28;20022;-65
2023/07/06 08:07:22;;;;;;;5.07;1.90;;;;;;;19.82;62.83;101067.50;6006660;28;20027;-65
2023/07/06 08:10:17;;;;;;;4.27;1.93;;;;;;;19.64;63.42;101075.25;6004458;28;20046;-66
2023/07/06 08:13:12;;;;;;;5.87;2.23;;;;;;;19.58;61.73;101059.88;6004339;28;20026;-66
2023/07/06 08:16:08;;;;;;;6.30;2.40;;;;;;;19.67;59.37;101047.13;6003618;28;20538;-66
2023/07/06 08:19:03;;;;;;;5.63;2.08;;;;;;;19.63;59.43;101078.97;6004432;28;20031;-66
2023/07/06 08:21:59;;;;;;;3.67;1.67;;;;;;;19.78;60.39;101079.72;5998950;28;20034;-66
2023/07/06 08:24:55;;;;;;;4.30;1.58;;;;;;;20.20;59.90;101074.16;6003453;28;20039;-66
2023/07/06 08:27:50;;;;;;;4.33;1.80;;;;;;;20.27;57.76;101092.25;6005479;28;20340;-66
2023/07/06 08:30:46;;;;;;;4.25;1.60;;;;;;;19.78;57.14;101087.78;6003952;28;20030;-66
2023/07/06 08:33:42;;;;;;;6.05;1.80;;;;;;;19.86;59.36;101095.72;6003528;28;20170;-65
2023/07/06 08:36:37;;;;;;;4.03;1.80;;;;;;;19.86;56.88;101086.78;6005162;28;20382;-66
2023/07/06 08:39:33;;;;;;;4.63;1.77;;;;;;;20.47;57.87;101093.97;6003502;28;20426;-65
2023/07/06 08:42:28;;;;;;;4.57;1.50;;;;;;;20.23;56.45;101091.78;6003962;28;20038;-66
2023/07/06 08:45:38;;;;;;;5.35;1.98;;;;;;;20.17;58.58;101088.00;6005091;28;20073;-67
2023/07/06 08:48:36;;;;;;;5.57;1.77;;;;;;;20.95;56.02;101097.47;6002658;28;20116;-66
2023/07/06 08:51:34;;;;;;;2.42;1.40;;;;;;;21.04;53.83;101106.19;6002366;28;20049;-66
2023/07/06 08:54:33;;;;;;;4.13;1.45;;;;;;;20.93;53.65;101099.53;6004646;28;20029;-65
2023/07/06 08:57:30;;;;;;;4.65;1.63;;;;;;;20.97;55.00;101094.56;6003130;28;20065;-66
2023/07/06 09:00:27;;;;;;;4.47;1.63;;;;;;;20.61;56.16;101097.56;6001974;28;20041;-65
2023/07/06 09:03:23;;;;;;;5.97;2.05;;;;;;;20.52;57.51;101113.06;6003144;28;20031;-65
2023/07/06 09:06:21;;;;;;;6.13;2.35;;;;;;;20.79;57.98;101114.84;6003175;28;20035;-66
2023/07/06 09:09:16;;;;;;;5.38;1.70;;;;;;;20.85;56.30;101113.19;6003558;28;20463;-66
2023/07/06 09:12:24;;;;;;;4.27;2.33;;;;;;;20.58;53.28;101095.25;6003312;28;20093;-66
2023/07/06 09:15:25;;;;;;;5.22;1.77;;;;;;;20.82;54.32;101108.19;6001156;28;20046;-65
2023/07/06 09:18:20;;;;;;;4.45;1.95;;;;;;;20.98;53.40;101091.66;6003300;28;20049;-65
2023/07/06 09:21:20;;;;;;;5.90;1.73;;;;;;;20.86;53.43;101097.84;6002909;28;20031;-65
2023/07/06 09:24:16;;;;;;;4.45;1.70;;;;;;;20.83;54.73;101109.03;6002516;28;20098;-66
2023/07/06 09:27:23;;;;;;;4.60;1.57;;;;;;;20.35;56.14;101100.16;6002879;28;20392;-66
2023/07/06 09:30:29;;;;;;;4.57;1.40;;;;;;;21.13;54.61;101118.47;6003040;28;20590;-66
2023/07/06 09:33:26;;;;;;;3.30;1.60;;;;;;;21.70;52.27;101102.53;6002502;28;20089;-66
2023/07/06 09:36:25;;;;;;;5.38;1.67;;;;;;;21.83;51.44;101102.50;6002982;28;20113;-66
2023/07/06 09:39:21;;;;;;;3.80;1.42;;;;;;;22.03;48.95;101113.31;6002826;28;20031;-66
2023/07/06 09:42:17;;;;;;;4.53;1.50;;;;;;;21.92;50.73;101105.84;6002590;28;20042;-66
2023/07/06 09:45:23;;;;;;;4.68;1.38;;;;;;;21.77;49.37;101087.13;6002231;28;20360;-65
2023/07/06 09:48:33;;;;;;;7.88;1.80;;;;;;;22.01;50.96;101106.47;6008843;28;20053;-65
2023/07/06 09:51:37;;;;;;;6.63;2.13;;;;;;;21.88;51.03;101094.63;6012518;28;20382;-66
2023/07/06 09:54:38;;;;;;;3.22;1.10;;;;;;;21.74;49.40;101119.16;6005089;28;20406;-66
2023/07/06 09:57:35;;;;;;;4.47;1.50;;;;;;;21.76;46.71;101096.31;6024391;28;20035;-66
2023/07/06 10:00:39;;;;;;;2.83;1.27;;;;;;;21.21;48.00;101107.50;6002312;28;20026;-66
2023/07/06 10:03:43;;;;;;;1.83;1.13;;;;;;;21.27;49.70;101096.72;6000929;28;20035;-66
2023/07/06 10:06:56;;;;;;;4.00;1.38;;;;;;;21.72;48.07;101105.00;6002645;28;20018;-66
2023/07/06 10:09:57;;;;;;;5.07;1.50;;;;;;;21.28;49.55;101117.25;5991143;28;20026;-66
2023/07/06 10:13:00;;;;;;;3.65;1.38;;;;;;;20.97;50.17;101099.97;6000966;28;20097;-65
2023/07/06 10:16:12;;;;;;;2.80;1.20;;;;;;;21.25;51.65;101114.97;6000794;28;20050;-66
2023/07/06 10:19:25;;;;;;;2.63;1.40;;;;;;;21.71;50.24;101079.06;6001009;28;20132;-66
2023/07/06 10:22:31;;;;;;;3.25;1.30;;;;;;;22.68;46.95;101104.19;6002555;28;20469;-66
2023/07/06 10:25:34;;;;;;;3.33;1.20;;;;;;;22.57;47.05;101104.00;6010582;28;20035;-66
2023/07/06 10:28:35;;;;;;;2.63;1.40;;;;;;;22.30;47.35;101097.88;6001627;28;20031;-66
2023/07/06 10:31:43;;;;;;;3.10;1.20;;;;;;;22.82;47.20;101113.06;6005639;28;20030;-66
2023/07/06 10:34:53;;;;;;;3.67;1.58;;;;;;;22.80;47.47;101104.34;6006178;28;20030;-66
2023/07/06 10:37:49;;;;;;;2.97;1.48;;;;;;;22.62;46.82;101117.69;6005448;28;20062;-66
2023/07/06 10:40:52;;;;;;;2.10;1.00;;;;;;;22.50;47.07;101107.53;6006307;28;20030;-66
2023/07/06 10:43:49;;;;;;;2.35;1.23;;;;;;;22.54;47.40;101111.50;6004581;28;20043;-67
2023/07/06 10:46:54;;;;;;;5.00;1.40;;;;;;;22.62;47.00;101086.06;6006208;28;20116;-66
2023/07/06 10:50:07;;;;;;;2.58;1.25;;;;;;;22.76;46.66;101113.91;6006333;28;20122;-66
2023/07/06 10:53:10;;;;;;;4.95;1.42;;;;;;;22.20;46.29;101108.28;6005896;28;20043;-66
2023/07/06 10:56:12;;;;;;;2.30;1.25;;;;;;;21.98;47.13;101115.81;6004611;28;20027;-66
2023/07/06 10:59:15;;;;;;;3.85;1.55;;;;;;;21.40;48.80;101103.16;6005549;28;20399;-67
2023/07/06 11:02:24;;;;;;;3.47;1.60;;;;;;;21.19;49.62;101099.63;6005729;28;20046;-66
2023/07/06 11:05:32;;;;;;;2.72;1.20;;;;;;;21.34;51.54;101121.00;6009889;28;20055;-67
2023/07/06 11:09:07;;;;;;;2.30;1.30;;;;;;;21.36;50.18;101113.56;6005813;28;20030;-66
2023/07/06 11:12:05;;;;;;;3.03;1.25;;;;;;;22.10;50.47;101108.72;6004567;28;20154;-66
2023/07/06 11:15:16;;;;;;;3.30;1.30;;;;;;;21.71;48.20;101116.88;6005449;28;20034;-66
2023/07/06 11:18:32;;;;;;;2.42;1.33;;;;;;;21.46;50.26;101123.91;6005421;28;20601;-67
2023/07/06 11:21:33;;;;;;;2.05;1.55;;;;;;;21.72;47.57;101121.22;6004513;28;20034;-67
2023/07/06 11:24:33;;;;;;;5.53;1.35;;;;;;;22.53;47.34;101114.41;6004874;28;20160;-66
2023/07/06 11:27:31;;;;;;;2.22;1.20;;;;;;;22.45;44.91;101101.13;6004320;28;20038;-66
2023/07/06 11:30:39;;;;;;;2.05;0.90;;;;;;;21.98;46.55;101115.81;6004990;28;20081;-66
2023/07/06 11:33:41;;;;;;;3.63;1.27;;;;;;;22.36;45.28;101105.97;6019198;28;20114;-66
2023/07/06 11:36:54;;;;;;;3.10;1.38;;;;;;;22.61;43.99;101099.84;6004998;28;20050;-66
2023/07/06 11:40:10;;;;;;;2.42;1.00;;;;;;;23.35;41.31;101103.53;6010471;28;20026;-67
2023/07/06 11:43:29;;;;;;;2.75;1.00;;;;;;;23.26;41.21;101115.72;6003747;28;20563;-67
2023/07/06 11:46:44;;;;;;;3.03;0.90;;;;;;;22.69;41.93;101113.13;6005066;28;20498;-68
2023/07/06 11:49:49;;;;;;;2.33;1.05;;;;;;;22.73;44.82;101115.19;6005131;28;20050;-67
2023/07/06 11:52:58;;;;;;;2.67;0.93;;;;;;;23.41;42.52;101116.25;6004888;28;20031;-66
2023/07/06 11:56:04;;;;;;;2.60;1.02;;;;;;;23.94;40.03;101115.78;6005437;28;20031;-67
2023/07/06 11:59:04;;;;;;;3.20;1.20;;;;;;;24.12;40.79;101115.84;6004971;28;20030;-67
2023/07/06 12:02:00;;;;;;;2.83;1.00;;;;;;;23.81;42.47;101118.63;6004867;28;20418;-67
2023/07/06 12:04:55;;;;;;;2.22;1.10;;;;;;;23.38;39.81;101113.13;6004229;28;20042;-67
2023/07/06 12:08:00;;;;;;;4.03;1.10;;;;;;;23.98;40.98;101120.53;6004541;28;20035;-67
2023/07/06 12:11:07;;;;;;;2.47;1.10;;;;;;;23.41;40.24;101113.53;6004567;28;20139;-67
2023/07/06 12:14:03;;;;;;;3.58;1.50;;;;;;;23.59;40.39;101107.38;6004115;28;20478;-66
2023/07/06 12:16:59;;;;;;;2.53;1.25;;;;;;;23.52;41.89;101123.66;6004529;28;20050;-66
2023/07/06 12:19:58;;;;;;;2.05;1.33;;;;;;;23.05;42.95;101124.16;6004189;28;20029;-67
2023/07/06 12:22:57;;;;;;;4.22;1.25;;;;;;;22.54;45.83;101122.31;6003592;28;20023;-66
2023/07/06 12:25:53;;;;;;;3.47;1.02;;;;;;;22.77;45.45;101132.66;6011436;28;20126;-66
2023/07/06 12:28:49;;;;;;;4.82;1.52;;;;;;;23.12;42.97;101108.72;6007862;28;20482;-66
2023/07/06 12:31:45;;;;;;;3.45;1.50;;;;;;;23.21;44.68;101120.91;6006247;28;20026;-66
2023/07/06 12:34:44;;;;;;;2.25;1.20;;;;;;;24.06;41.48;101128.38;6002091;28;20445;-67
2023/07/06 12:37:43;;;;;;;3.22;1.20;;;;;;;24.40;37.77;101127.00;6003001;28;20055;-66
2023/07/06 12:40:39;;;;;;;3.13;1.13;;;;;;;24.23;39.56;101124.06;6003686;28;20019;-67
2023/07/06 12:43:35;;;;;;;6.05;1.10;;;;;;;23.90;39.22;101120.81;6002997;28;20455;-67
2023/07/06 12:46:32;;;;;;;3.63;1.23;;;;;;;24.16;39.16;101111.63;6006481;28;20027;-66
2023/07/06 12:49:29;;;;;;;3.42;1.20;;;;;;;24.50;40.49;101110.19;6003645;28;20031;-67
2023/07/06 12:52:25;;;;;;;2.88;1.10;;;;;;;24.62;40.56;101130.06;5995413;28;20057;-67
2023/07/06 12:55:21;;;;;;;3.30;1.20;;;;;;;23.95;39.94;101114.72;6002860;28;20031;-66
2023/07/06 12:58:28;;;;;;;3.67;1.20;;;;;;;23.08;41.70;101118.31;6003248;28;20070;-66
2023/07/06 13:01:35;;;;;;;3.08;1.10;;;;;;;23.00;44.73;101132.09;6002277;28;20027;-66
2023/07/06 13:04:43;;;;;;;4.65;1.15;;;;;;;22.74;43.40;101132.25;6017655;28;20033;-66
2023/07/06 13:07:39;;;;;;;2.67;1.23;;;;;;;22.31;44.57;101127.38;6006470;28;20027;-66
2023/07/06 13:10:36;;;;;;;1.58;1.00;;;;;;;22.28;45.24;101132.38;6017442;28;20042;-66
2023/07/06 13:13:37;;;;;;;2.78;1.17;;;;;;;22.15;45.10;101125.13;6016633;28;20096;-67
2023/07/06 13:16:40;;;;;;;1.90;1.10;;;;;;;22.20;44.67;101114.53;6009627;28;20382;-66
2023/07/06 13:19:35;;;;;;;4.38;1.05;;;;;;;22.16;44.21;101110.59;6003078;28;20066;-67
2023/07/06 13:22:30;;;;;;;2.83;1.43;;;;;;;22.23;44.95;101138.41;6014463;28;20034;-67
2023/07/06 13:25:27;;;;;;;4.95;1.40;;;;;;;22.48;44.21;101135.84;6002179;28;20043;-67
2023/07/06 13:28:23;;;;;;;4.47;1.47;;;;;;;22.98;44.18;101134.19;6003009;28;20034;-67
2023/07/06 13:31:19;;;;;;;3.78;1.23;;;;;;;23.49;43.30;101121.38;6007723;28;20378;-66
2023/07/06 13:34:15;;;;;;;2.15;1.05;;;;;;;23.46;41.98;101116.41;6001860;28;20027;-66
2023/07/06 13:37:15;;;;;;;2.63;1.08;;;;;;;23.37;43.07;101133.13;6006503;28;20031;-67
2023/07/06 13:40:15;;;;;;;3.30;1.27;;;;;;;24.11;42.24;101139.38;6002799;28;20166;-66
2023/07/06 13:43:14;;;;;;;;;;;;;;;24.03;39.84;101134.22;6012105;28;20041;-66
2023/07/06 13:46:10;;;;;;;1.92;0.98;;;;;;;24.26;38.55;101128.19;6000931;28;19948;-66
2023/07/06 13:49:06;;;;;;;2.50;1.10;;;;;;;23.72;39.45;101114.53;6001885;28;20022;-66